Time;durP1;ratioP1;P1;durP2;ratioP2;P2;SDS_P1;SDS_P2;PMS_P1;PMS_P2;Temp;Humidity;BMP_temperature;BMP_pressure;BME280_temperature;BME280_humidity;BME280_pressure;Samples;Min_cycle;Max_cycle;Signal;HPM_P1;HPM_P2
2021/01/30 00:00:12;;;;;;;20.27;11.65;;;-0.60;99.90;;;;;;4923264;29;20036;-76
2021/01/30 00:02:37;;;;;;;25.08;11.05;;;-0.50;99.90;;;;;;4943913;29;20244;-77
2021/01/30 00:05:04;;;;;;;20.42;11.70;;;-0.50;99.90;;;;;;4944732;28;20043;-78
2021/01/30 00:07:30;;;;;;;17.48;10.52;;;-0.50;99.90;;;;;;4927404;29;20047;-77
2021/01/30 00:09:55;;;;;;;21.80;11.70;;;-0.60;99.90;;;;;;4945718;28;20024;-77
2021/01/30 00:12:24;;;;;;;17.80;10.40;;;;;;;;;;4943273;29;20024;-77
2021/01/30 00:14:50;;;;;;;19.60;10.82;;;-0.60;99.90;;;;;;4939911;28;20107;-77
2021/01/30 00:17:17;;;;;;;23.58;12.30;;;-0.50;99.90;;;;;;4939325;29;20062;-77
2021/01/30 00:19:44;;;;;;;18.73;9.85;;;-0.70;99.90;;;;;;4937510;28;20027;-76
2021/01/30 00:22:14;;;;;;;20.88;11.15;;;-0.70;99.90;;;;;;4945493;29;20030;-76
2021/01/30 00:24:44;;;;;;;23.70;11.43;;;-0.60;99.90;;;;;;4940441;29;20051;-76
2021/01/30 00:27:11;;;;;;;21.65;11.43;;;-0.70;99.90;;;;;;4920116;29;20032;-77
2021/01/30 00:29:41;;;;;;;21.60;11.70;;;-0.70;99.90;;;;;;4942812;29;20032;-78
2021/01/30 00:32:07;;;;;;;20.27;12.55;;;-0.60;99.90;;;;;;4942869;29;20040;-76
2021/01/30 00:34:34;;;;;;;27.33;13.90;;;-0.60;99.90;;;;;;4938257;29;20027;-77
2021/01/30 00:37:29;;;;;;;22.83;13.30;;;-0.70;99.90;;;;;;4923534;29;20067;-76
2021/01/30 00:39:55;;;;;;;23.20;13.35;;;-0.70;99.90;;;;;;4942520;29;20052;-77
2021/01/30 00:42:23;;;;;;;30.20;14.63;;;-0.70;99.90;;;;;;4924981;29;20048;-77
2021/01/30 00:44:50;;;;;;;23.75;14.65;;;-0.70;99.90;;;;;;4943462;29;20051;-77
2021/01/30 00:47:17;;;;;;;25.60;16.10;;;-0.60;99.90;;;;;;4936170;29;20104;-77
2021/01/30 00:49:45;;;;;;;21.55;12.75;;;-0.60;99.90;;;;;;4941535;29;20061;-77
2021/01/30 00:52:14;;;;;;;22.52;13.50;;;-0.60;99.90;;;;;;4940501;28;20124;-77
2021/01/30 00:54:40;;;;;;;24.60;15.27;;;-0.60;99.90;;;;;;4941179;29;20577;-79
2021/01/30 00:57:06;;;;;;;22.58;13.05;;;-0.60;99.90;;;;;;4940791;29;20084;-81
2021/01/30 00:59:32;;;;;;;22.15;12.88;;;-0.70;99.90;;;;;;4945764;29;20031;-81
2021/01/30 01:01:58;;;;;;;25.25;14.48;;;-0.70;99.90;;;;;;4930102;29;20082;-79
2021/01/30 01:04:23;;;;;;;24.35;13.80;;;-0.70;99.90;;;;;;4949694;29;20047;-79
2021/01/30 01:06:50;;;;;;;23.40;12.35;;;-0.70;99.90;;;;;;4954009;28;20035;-81
2021/01/30 01:09:18;;;;;;;21.52;12.30;;;-0.70;99.90;;;;;;4949156;29;20034;-81
2021/01/30 01:11:46;;;;;;;24.52;12.88;;;-0.70;99.90;;;;;;4948844;28;20035;-82
2021/01/30 01:14:12;;;;;;;20.80;12.23;;;-0.70;99.90;;;;;;4957349;29;20046;-80
2021/01/30 01:16:38;;;;;;;23.08;12.48;;;-0.70;99.90;;;;;;4940358;29;20043;-80
2021/01/30 01:19:04;;;;;;;20.48;12.70;;;-0.70;99.90;;;;;;4954684;28;20047;-81
2021/01/30 01:21:31;;;;;;;23.73;12.73;;;-0.70;99.90;;;;;;4950665;29;20096;-80
2021/01/30 01:23:57;;;;;;;21.25;12.18;;;-0.60;99.90;;;;;;4955139;28;20136;-81
2021/01/30 01:26:23;;;;;;;22.73;12.93;;;-0.70;99.90;;;;;;4954956;29;20378;-81
2021/01/30 01:28:49;;;;;;;23.70;13.02;;;-0.60;99.90;;;;;;4956580;28;20047;-81
2021/01/30 01:31:16;;;;;;;23.17;12.13;;;-0.70;99.90;;;;;;4955071;29;20043;-83
2021/01/30 01:33:42;;;;;;;22.67;13.63;;;-0.70;99.90;;;;;;4956702;28;20052;-82
2021/01/30 01:36:13;;;;;;;22.38;12.50;;;-0.70;99.90;;;;;;4942320;29;20035;-82
2021/01/30 01:38:39;;;;;;;23.80;12.52;;;-0.80;99.90;;;;;;4921693;29;20043;-81
2021/01/30 01:41:05;;;;;;;23.88;13.30;;;;;;;;;;4947846;29;20426;-81
2021/01/30 01:43:33;;;;;;;20.77;12.60;;;-0.80;99.90;;;;;;4933418;29;20030;-81
2021/01/30 01:46:09;;;;;;;25.00;14.75;;;;;;;;;;4952124;29;20032;-81
2021/01/30 01:48:40;;;;;;;26.33;16.27;;;-0.60;99.90;;;;;;4934575;29;20031;-82
2021/01/30 01:51:07;;;;;;;23.17;15.73;;;-0.80;99.90;;;;;;4952445;29;20023;-82
2021/01/30 01:53:38;;;;;;;22.52;14.02;;;-0.70;99.90;;;;;;4933422;28;20059;-82
2021/01/30 01:56:10;;;;;;;29.17;18.02;;;-0.70;99.90;;;;;;4953848;29;20023;-82
2021/01/30 01:58:40;;;;;;;23.58;14.73;;;-0.60;99.90;;;;;;4932865;28;20067;-82
2021/01/30 02:01:06;;;;;;;24.75;15.38;;;;;;;;;;4953626;29;20092;-83
2021/01/30 02:03:36;;;;;;;27.85;16.45;;;-0.60;99.90;;;;;;4946117;29;20028;-81
2021/01/30 02:06:03;;;;;;;26.35;18.00;;;-0.60;99.90;;;;;;4952095;28;20020;-82
2021/01/30 02:08:34;;;;;;;27.85;14.23;;;-0.80;99.90;;;;;;4954879;29;20023;-81
2021/01/30 02:11:00;;;;;;;25.48;15.43;;;;;;;;;;4929942;29;20090;-82
2021/01/30 02:13:35;;;;;;;22.90;15.88;;;-0.80;99.90;;;;;;4931415;29;20031;-83
2021/01/30 02:16:19;;;;;;;22.95;14.05;;;;;;;;;;4945125;28;20055;-84
2021/01/30 02:19:07;;;;;;;20.55;13.05;;;-0.80;99.90;;;;;;4945344;29;20036;-82
2021/01/30 02:21:55;;;;;;;22.65;13.60;;;-0.80;99.90;;;;;;4938558;29;20028;-81
2021/01/30 02:24:21;;;;;;;18.02;10.60;;;;;;;;;;4948712;29;20040;-83
2021/01/30 02:26:56;;;;;;;16.38;11.27;;;;;;;;;;4926246;29;20038;-82
2021/01/30 02:29:28;;;;;;;17.20;9.50;;;;;;;;;;4939563;29;20038;-82
2021/01/30 02:31:56;;;;;;;15.70;8.40;;;;;;;;;;4948126;28;20036;-82
2021/01/30 02:34:56;;;;;;;14.77;9.32;;;-1.00;99.90;;;;;;4928900;29;20032;-84
2021/01/30 02:37:31;;;;;;;16.30;8.63;;;-1.00;99.90;;;;;;4939181;29;20043;-82
2021/01/30 02:40:14;;;;;;;13.75;8.63;;;-1.00;99.90;;;;;;4948322;29;20040;-81
2021/01/30 02:42:54;;;;;;;14.60;9.23;;;-1.00;99.90;;;;;;4936509;29;20054;-83
2021/01/30 02:45:24;;;;;;;17.00;8.98;;;-1.00;99.90;;;;;;4954835;29;20075;-84
2021/01/30 02:47:57;;;;;;;14.65;8.40;;;-1.00;99.90;;;;;;4947148;28;20028;-83
2021/01/30 02:50:31;;;;;;;15.35;10.43;;;-1.00;99.90;;;;;;4947712;29;20036;-82
2021/01/30 02:53:00;;;;;;;20.95;10.82;;;-0.90;99.90;;;;;;4932836;29;20030;-84
2021/01/30 02:55:29;;;;;;;14.32;9.05;;;-0.90;99.90;;;;;;4946924;29;20035;-82
2021/01/30 02:57:55;;;;;;;16.55;9.95;;;;;;;;;;4935359;29;20040;-82
2021/01/30 03:00:24;;;;;;;15.93;10.32;;;-0.90;99.90;;;;;;4953352;29;20030;-82
2021/01/30 03:02:50;;;;;;;16.73;10.10;;;;;;;;;;4947422;28;20440;-82
2021/01/30 03:05:16;;;;;;;18.27;10.43;;;;;;;;;;4942921;29;20031;-83
2021/01/30 03:08:08;;;;;;;17.20;11.20;;;-0.70;99.90;;;;;;4944618;28;20058;-80
2021/01/30 03:10:47;;;;;;;;;;;-0.70;99.90;;;;;;4921182;29;20492;-82
2021/01/30 03:13:13;;;;;;;16.65;9.18;;;;;;;;;;4925203;29;20009;-82
2021/01/30 03:15:47;;;;;;;20.13;10.05;;;-0.70;99.90;;;;;;4946702;29;20032;-83
2021/01/30 03:18:17;;;;;;;18.63;11.48;;;-0.70;99.90;;;;;;4944115;28;20034;-82
2021/01/30 03:20:45;;;;;;;19.90;10.60;;;-0.70;99.90;;;;;;4928991;29;20023;-82
2021/01/30 03:23:13;;;;;;;20.88;11.85;;;-0.70;99.90;;;;;;4949196;28;20034;-82
2021/01/30 03:25:41;;;;;;;17.17;11.00;;;-0.70;99.90;;;;;;4950983;29;20031;-82
2021/01/30 03:28:07;;;;;;;16.58;10.98;;;;;;;;;;4940652;28;20040;-82
2021/01/30 03:30:33;;;;;;;19.08;11.32;;;;;;;;;;4931710;29;20417;-81
2021/01/30 03:33:01;;;;;;;18.23;11.55;;;-0.70;99.90;;;;;;4933272;29;20043;-81
2021/01/30 03:35:27;;;;;;;15.63;10.20;;;;;;;;;;4943994;29;20031;-81
2021/01/30 03:37:53;;;;;;;17.23;10.93;;;;;;;;;;4940399;28;20071;-80
2021/01/30 03:40:21;;;;;;;18.25;10.65;;;-0.60;99.90;;;;;;4930288;29;20068;-81
2021/01/30 03:42:47;;;;;;;14.80;9.13;;;;;;;;;;4928191;29;20040;-82
2021/01/30 03:45:17;;;;;;;16.63;9.85;;;-0.60;99.90;;;;;;4915150;29;20035;-82
2021/01/30 03:47:43;;;;;;;15.70;10.60;;;;;;;;;;4943787;29;20096;-82
2021/01/30 03:50:10;;;;;;;19.50;10.07;;;;;;;;;;4943116;28;20103;-82
2021/01/30 03:52:36;;;;;;;16.63;9.60;;;;;;;;;;4940226;29;20032;-81
2021/01/30 03:55:02;;;;;;;11.80;8.50;;;-0.50;99.90;;;;;;4940750;29;20032;-80
2021/01/30 03:57:28;;;;;;;17.23;8.77;;;-0.50;99.90;;;;;;4943479;29;20034;-80
2021/01/30 03:59:53;;;;;;;13.75;8.93;;;-0.40;99.90;;;;;;4945941;28;20036;-81
2021/01/30 04:02:19;;;;;;;12.75;7.70;;;-0.50;99.90;;;;;;4949014;29;20476;-80
2021/01/30 04:04:45;;;;;;;14.32;8.85;;;-0.40;99.90;;;;;;4931683;29;20040;-81
2021/01/30 04:07:11;;;;;;;14.88;9.48;;;-0.50;99.90;;;;;;4943724;29;20028;-82
2021/01/30 04:09:37;;;;;;;13.63;8.98;;;-0.40;99.90;;;;;;4940826;29;20028;-80
2021/01/30 04:12:05;;;;;;;16.25;8.63;;;-0.40;99.90;;;;;;4941970;29;20070;-80
2021/01/30 04:14:32;;;;;;;13.50;8.48;;;-0.50;99.90;;;;;;4929367;29;20078;-80
2021/01/30 04:16:59;;;;;;;13.55;8.05;;;-0.40;99.90;;;;;;4947467;29;20109;-82
2021/01/30 04:19:24;;;;;;;14.30;9.13;;;-0.50;99.90;;;;;;4951044;28;20055;-82
2021/01/30 04:21:50;;;;;;;12.45;8.50;;;-0.40;99.90;;;;;;4932236;29;20032;-81
2021/01/30 04:24:16;;;;;;;16.58;8.23;;;-0.30;99.90;;;;;;4941730;29;20047;-80
2021/01/30 04:26:47;;;;;;;14.50;8.35;;;-0.30;99.90;;;;;;4943130;28;20401;-81
2021/01/30 04:29:13;;;;;;;17.38;10.13;;;-0.30;99.90;;;;;;4923426;29;20024;-80
2021/01/30 04:31:39;;;;;;;14.57;8.73;;;-0.30;99.90;;;;;;4946144;28;20054;-80
2021/01/30 04:34:06;;;;;;;14.65;10.10;;;-0.40;99.90;;;;;;4936455;29;20024;-81
2021/01/30 04:36:33;;;;;;;16.05;9.20;;;-0.20;99.90;;;;;;4940223;28;20028;-81
2021/01/30 04:39:00;;;;;;;15.43;9.60;;;-0.20;99.90;;;;;;4944544;29;20032;-80
2021/01/30 04:41:34;;;;;;;17.05;9.60;;;-0.20;99.90;;;;;;4953051;28;20023;-80
2021/01/30 04:44:05;;;;;;;17.55;9.20;;;-0.20;99.90;;;;;;4952081;29;20012;-81
2021/01/30 04:46:54;;;;;;;17.48;9.75;;;-0.20;99.90;;;;;;4959828;28;20024;-81
2021/01/30 04:49:38;;;;;;;16.52;9.98;;;-0.30;99.90;;;;;;4905815;29;20036;-80
2021/01/30 04:52:31;;;;;;;18.25;9.55;;;-0.30;99.90;;;;;;4934367;29;20043;-80
2021/01/30 04:55:18;;;;;;;17.23;9.35;;;-0.20;99.90;;;;;;4932125;29;20046;-80
2021/01/30 04:58:07;;;;;;;19.92;10.15;;;-0.30;99.90;;;;;;4938205;28;20031;-80
2021/01/30 05:01:00;;;;;;;18.20;11.23;;;-0.20;99.90;;;;;;4940960;29;20024;-80
2021/01/30 05:04:07;;;;;;;18.67;11.18;;;-0.30;99.90;;;;;;4938950;29;20492;-80
2021/01/30 05:06:50;;;;;;;21.80;11.90;;;-0.20;99.90;;;;;;4915304;28;20035;-80
2021/01/30 05:09:45;;;;;;;22.13;11.68;;;-0.20;99.90;;;;;;4925724;29;20032;-80
2021/01/30 05:12:26;;;;;;;21.80;12.32;;;-0.20;99.90;;;;;;4907876;29;20075;-80
2021/01/30 05:15:24;;;;;;;20.92;11.40;;;-0.20;99.90;;;;;;4934482;29;20030;-81
2021/01/30 05:18:04;;;;;;;21.33;11.32;;;-0.20;99.90;;;;;;4935167;29;20031;-80
2021/01/30 05:20:35;;;;;;;24.17;13.35;;;-0.20;99.90;;;;;;4939638;29;20028;-80
2021/01/30 05:23:03;;;;;;;25.23;12.73;;;-0.20;99.90;;;;;;4940251;29;20036;-81
2021/01/30 05:25:29;;;;;;;22.10;12.85;;;-0.20;99.90;;;;;;4938565;29;20047;-80
2021/01/30 05:28:19;;;;;;;25.80;13.13;;;-0.20;99.90;;;;;;4935145;29;20103;-80
2021/01/30 05:31:03;;;;;;;24.55;13.23;;;-0.20;99.90;;;;;;4945692;29;20050;-81
2021/01/30 05:33:44;;;;;;;22.10;12.57;;;-0.20;99.90;;;;;;4935625;29;20032;-80
2021/01/30 05:36:21;;;;;;;21.58;12.40;;;-0.10;99.90;;;;;;4940474;29;20044;-81
2021/01/30 05:39:06;;;;;;;27.13;13.25;;;-0.20;99.90;;;;;;4936728;28;20099;-79
2021/01/30 05:41:48;;;;;;;22.35;12.95;;;-0.10;99.90;;;;;;4947633;29;20396;-81
2021/01/30 05:44:47;;;;;;;20.75;12.02;;;-0.10;99.90;;;;;;4943545;29;20484;-81
2021/01/30 05:47:20;;;;;;;21.85;12.68;;;-0.20;99.90;;;;;;4939850;29;20039;-80
2021/01/30 05:50:07;;;;;;;21.95;12.40;;;-0.20;99.90;;;;;;4945972;28;20109;-80
2021/01/30 05:52:38;;;;;;;23.35;13.15;;;-0.10;99.90;;;;;;4951442;29;20087;-80
2021/01/30 05:55:06;;;;;;;23.30;12.98;;;-0.10;99.90;;;;;;4947243;28;20023;-81
2021/01/30 05:57:31;;;;;;;28.65;14.50;;;-0.10;99.90;;;;;;4931864;29;20040;-81
2021/01/30 06:00:00;;;;;;;25.65;13.32;;;-0.10;99.90;;;;;;4947578;28;20024;-81
2021/01/30 06:02:30;;;;;;;24.40;13.55;;;-0.10;99.90;;;;;;4919929;29;20040;-80
2021/01/30 06:04:57;;;;;;;29.27;13.57;;;-0.10;99.90;;;;;;4943411;29;20036;-81
2021/01/30 06:07:33;;;;;;;23.92;12.90;;;-0.10;99.90;;;;;;4939860;29;20032;-80
2021/01/30 06:10:18;;;;;;;22.08;12.68;;;-0.10;99.90;;;;;;4944687;28;20032;-81
2021/01/30 06:12:44;;;;;;;22.42;12.52;;;-0.10;99.90;;;;;;4955682;29;20031;-81
2021/01/30 06:15:14;;;;;;;30.95;15.57;;;-0.10;99.90;;;;;;4953576;29;20023;-80
2021/01/30 06:17:41;;;;;;;24.05;12.65;;;-0.10;99.90;;;;;;4959051;29;20046;-81
2021/01/30 06:20:10;;;;;;;24.02;13.02;;;-0.10;99.90;;;;;;4951851;28;20035;-79
2021/01/30 06:22:38;;;;;;;24.45;14.68;;;-0.10;99.90;;;;;;4944455;29;20055;-81
2021/01/30 06:25:29;;;;;;;25.73;13.98;;;-0.30;99.90;;;;;;4942464;29;20059;-80
2021/01/30 06:28:00;;;;;;;24.70;13.87;;;-0.10;99.90;;;;;;4948814;29;20396;-80
2021/01/30 06:30:33;;;;;;;26.42;13.45;;;-0.10;99.90;;;;;;4927366;29;20031;-81
2021/01/30 06:33:02;;;;;;;27.77;14.10;;;-0.20;99.90;;;;;;4943966;29;20484;-80
2021/01/30 06:35:36;;;;;;;30.00;14.05;;;-0.20;99.90;;;;;;4934229;29;20039;-80
2021/01/30 06:38:11;;;;;;;23.98;13.48;;;-0.20;99.90;;;;;;4925144;29;20489;-80
2021/01/30 06:40:47;;;;;;;30.55;15.68;;;-0.10;99.90;;;;;;4950386;29;20042;-80
2021/01/30 06:43:22;;;;;;;27.63;14.13;;;-0.20;99.90;;;;;;4946345;29;20028;-80
2021/01/30 06:45:49;;;;;;;28.13;15.35;;;0.00;99.90;;;;;;4946864;29;20035;-82
2021/01/30 06:48:48;;;;;;;26.70;14.63;;;0.00;99.90;;;;;;4947829;29;20031;-80
2021/01/30 06:51:31;;;;;;;33.78;15.10;;;0.10;99.90;;;;;;4899159;28;20069;-80
2021/01/30 06:54:21;;;;;;;27.38;14.25;;;0.10;99.90;;;;;;4943041;29;20379;-81
2021/01/30 06:57:06;;;;;;;25.65;13.75;;;0.10;99.90;;;;;;4944175;28;20434;-81
2021/01/30 06:59:37;;;;;;;28.65;14.18;;;0.00;99.90;;;;;;4949128;29;20115;-79
2021/01/30 07:02:14;;;;;;;23.38;13.82;;;0.10;99.90;;;;;;4932882;29;20388;-81
2021/01/30 07:04:48;;;;;;;25.95;13.45;;;0.10;99.90;;;;;;4953157;29;20083;-79
2021/01/30 07:07:32;;;;;;;24.17;12.93;;;0.10;99.90;;;;;;4947576;29;20032;-80
2021/01/30 07:10:24;;;;;;;26.17;13.65;;;0.00;99.90;;;;;;4952412;29;20024;-81
2021/01/30 07:12:55;;;;;;;24.83;12.95;;;0.10;99.90;;;;;;4950257;29;20035;-80
2021/01/30 07:15:30;;;;;;;22.88;12.23;;;0.10;99.90;;;;;;4927467;29;20031;-82
2021/01/30 07:18:01;;;;;;;22.77;11.80;;;0.20;99.90;;;;;;4944109;29;20047;-81
2021/01/30 07:21:00;;;;;;;21.75;11.25;;;0.20;99.90;;;;;;4925876;29;20036;-81
2021/01/30 07:23:42;;;;;;;26.67;11.15;;;0.20;99.90;;;;;;4943149;29;20036;-80
2021/01/30 07:26:29;;;;;;;;;;;0.20;99.90;;;;;;4948921;29;20028;-80
2021/01/30 07:29:07;;;;;;;22.00;10.18;;;0.30;99.90;;;;;;4943280;28;20390;-80
2021/01/30 07:31:52;;;;;;;17.38;8.88;;;0.20;99.90;;;;;;4943292;29;20063;-81
2021/01/30 07:34:29;;;;;;;17.50;9.15;;;0.20;99.90;;;;;;4945006;29;20493;-78
2021/01/30 07:37:01;;;;;;;19.67;11.48;;;0.20;99.90;;;;;;4939049;29;20035;-79
2021/01/30 07:39:56;;;;;;;16.60;8.88;;;0.20;99.90;;;;;;4944249;28;20036;-82
2021/01/30 07:43:06;;;;;;;16.80;9.18;;;0.40;99.90;;;;;;4929828;28;20044;-80
2021/01/30 07:45:38;;;;;;;15.82;9.50;;;0.50;99.90;;;;;;4939266;29;20031;-79
2021/01/30 07:48:24;;;;;;;15.48;7.90;;;0.50;99.90;;;;;;4924237;29;20060;-80
2021/01/30 07:51:00;;;;;;;13.65;7.68;;;0.60;99.90;;;;;;4941064;29;20044;-80
2021/01/30 07:53:27;;;;;;;12.65;8.18;;;0.60;99.90;;;;;;4940981;29;20035;-82
2021/01/30 07:56:14;;;;;;;20.02;11.68;;;0.70;99.90;;;;;;4931793;29;20024;-82
2021/01/30 07:59:05;;;;;;;17.25;9.90;;;0.50;99.90;;;;;;4940642;29;20056;-81
2021/01/30 08:02:03;;;;;;;13.90;7.95;;;0.50;99.90;;;;;;4942261;29;20074;-81
2021/01/30 08:04:59;;;;;;;15.13;8.30;;;0.60;99.90;;;;;;4948432;29;20024;-80
2021/01/30 08:07:41;;;;;;;14.10;7.47;;;0.60;99.90;;;;;;4951737;29;20020;-81
2021/01/30 08:10:31;;;;;;;13.30;8.25;;;0.60;99.90;;;;;;4947160;28;20028;-82
2021/01/30 08:13:15;;;;;;;17.70;9.15;;;-0.10;99.90;;;;;;4941499;29;20040;-81
2021/01/30 08:16:02;;;;;;;14.35;7.80;;;0.50;99.90;;;;;;4929638;29;20449;-80
2021/01/30 08:18:32;;;;;;;10.40;7.80;;;-0.80;99.90;;;;;;4935217;29;20036;-80
2021/01/30 08:21:17;;;;;;;11.65;6.35;;;0.50;99.90;;;;;;4938480;29;20052;-80
2021/01/30 08:24:04;;;;;;;10.32;7.07;;;0.40;99.90;;;;;;4931154;29;20058;-79
2021/01/30 08:26:56;;;;;;;9.65;6.43;;;0.50;99.90;;;;;;4941972;29;20484;-80
2021/01/30 08:29:35;;;;;;;12.57;8.27;;;0.50;99.90;;;;;;4942628;28;20028;-80
2021/01/30 08:32:23;;;;;;;9.88;5.95;;;1.80;99.90;;;;;;4933216;29;20102;-80
2021/01/30 08:34:50;;;;;;;10.85;6.43;;;0.50;99.90;;;;;;4950476;28;20047;-81
2021/01/30 08:37:15;;;;;;;10.98;6.55;;;0.50;99.90;;;;;;4948607;29;20055;-83
2021/01/30 08:40:16;;;;;;;11.45;6.72;;;0.40;99.90;;;;;;4951372;29;20032;-80
2021/01/30 08:43:03;;;;;;;15.68;8.75;;;0.40;99.90;;;;;;4947303;29;20138;-81
2021/01/30 08:45:34;;;;;;;14.35;8.77;;;0.70;99.90;;;;;;4937182;29;20036;-80
2021/01/30 08:48:30;;;;;;;12.32;7.57;;;0.80;99.90;;;;;;4941822;29;20053;-81
2021/01/30 08:50:57;;;;;;;11.75;7.50;;;0.90;99.90;;;;;;4941633;28;20032;-80
2021/01/30 08:53:23;;;;;;;11.13;7.35;;;;;;;;;;4942432;29;20028;-80
2021/01/30 08:55:55;;;;;;;9.32;6.07;;;0.90;99.90;;;;;;4932415;28;20100;-80
2021/01/30 08:58:32;;;;;;;10.52;7.22;;;1.00;99.90;;;;;;4934392;29;20107;-79
2021/01/30 09:01:23;;;;;;;15.57;8.98;;;1.20;99.90;;;;;;4937666;28;20151;-80
2021/01/30 09:03:51;;;;;;;14.10;8.25;;;1.20;99.90;;;;;;4942944;29;20031;-81
2021/01/30 09:06:38;;;;;;;14.27;8.75;;;1.30;99.90;;;;;;4942654;28;20024;-82
2021/01/30 09:09:09;;;;;;;14.18;8.68;;;1.20;99.90;;;;;;4945798;29;20035;-82
2021/01/30 09:11:49;;;;;;;27.65;15.27;;;1.20;99.90;;;;;;4945068;28;20035;-82
2021/01/30 09:14:15;;;;;;;26.30;12.35;;;;;;;;;;4940393;29;20052;-82
2021/01/30 09:16:56;;;;;;;19.95;11.40;;;1.10;99.90;;;;;;4943661;28;20039;-82
2021/01/30 09:19:55;;;;;;;16.50;9.23;;;1.20;99.90;;;;;;4940382;29;20032;-81
2021/01/30 09:22:26;;;;;;;13.15;7.70;;;1.40;99.90;;;;;;4951061;28;20040;-79
2021/01/30 09:25:16;;;;;;;11.02;7.20;;;1.30;99.90;;;;;;4937826;29;20099;-81
2021/01/30 09:27:58;;;;;;;14.15;8.50;;;1.40;99.90;;;;;;4927345;29;20145;-82
2021/01/30 09:30:38;;;;;;;12.70;7.85;;;1.50;99.90;;;;;;4950145;29;20051;-82
2021/01/30 09:33:26;;;;;;;11.30;7.35;;;1.30;99.90;;;;;;4942724;28;20039;-83
2021/01/30 09:36:08;;;;;;;14.43;8.18;;;1.40;99.90;;;;;;4949469;29;20031;-80
2021/01/30 09:38:37;;;;;;;;;;;1.40;99.90;;;;;;4937032;29;20050;-81
2021/01/30 09:41:24;;;;;;;11.70;7.20;;;1.50;99.90;;;;;;4945965;29;19911;-81
2021/01/30 09:44:17;;;;;;;11.95;6.38;;;1.50;99.90;;;;;;4920850;29;20051;-80
2021/01/30 09:46:53;;;;;;;12.40;7.20;;;1.50;99.90;;;;;;4933582;29;20031;-81
2021/01/30 09:49:57;;;;;;;10.52;6.55;;;1.60;99.90;;;;;;4941380;29;20024;-81
2021/01/30 09:52:22;;;;;;;11.88;7.82;;;1.60;99.90;;;;;;4922008;29;20067;-81
2021/01/30 09:54:55;;;;;;;22.70;9.98;;;1.60;99.90;;;;;;4944315;28;20086;-80
2021/01/30 09:57:27;;;;;;;18.67;9.88;;;1.50;99.90;;;;;;4944438;29;20028;-80
2021/01/30 10:00:11;;;;;;;16.05;8.75;;;1.50;99.90;;;;;;4943197;28;20031;-80
2021/01/30 10:02:37;;;;;;;15.48;9.10;;;;;;;;;;4933090;29;20032;-80
2021/01/30 10:05:15;;;;;;;14.63;8.65;;;1.50;99.90;;;;;;4936588;28;20031;-80
2021/01/30 10:07:43;;;;;;;16.00;8.85;;;1.40;99.90;;;;;;4934415;29;20042;-81
2021/01/30 10:10:24;;;;;;;15.02;8.75;;;0.70;99.90;;;;;;4931369;29;20485;-83
2021/01/30 10:12:52;;;;;;;13.50;8.27;;;3.00;99.90;;;;;;4929818;29;20048;-80
2021/01/30 10:15:31;;;;;;;17.10;9.70;;;1.30;99.90;;;;;;4940327;28;20035;-78
2021/01/30 10:18:14;;;;;;;14.68;9.20;;;1.40;99.90;;;;;;4937243;29;20167;-77
2021/01/30 10:20:53;;;;;;;15.43;9.55;;;1.50;99.90;;;;;;4933018;29;20036;-77
2021/01/30 10:23:48;;;;;;;18.85;10.23;;;1.70;99.90;;;;;;4931900;29;20051;-77
2021/01/30 10:26:18;;;;;;;14.55;9.10;;;1.80;99.90;;;;;;4932972;29;20028;-77
2021/01/30 10:28:54;;;;;;;16.10;11.23;;;1.80;99.90;;;;;;4918168;29;20032;-76
2021/01/30 10:31:32;;;;;;;11.50;7.40;;;1.90;99.90;;;;;;4942565;28;20043;-80
2021/01/30 10:34:09;;;;;;;9.10;6.55;;;1.90;99.90;;;;;;4897481;29;20040;-77
2021/01/30 10:36:38;;;;;;;11.27;8.45;;;1.90;99.90;;;;;;4918046;29;20032;-78
2021/01/30 10:39:05;;;;;;;10.25;7.10;;;1.80;99.90;;;;;;4902125;29;20091;-77
2021/01/30 10:41:33;;;;;;;11.85;7.03;;;1.80;99.90;;;;;;4930570;28;20051;-82
2021/01/30 10:44:06;;;;;;;8.38;6.35;;;1.80;99.90;;;;;;4941185;29;20038;-80
2021/01/30 10:46:43;;;;;;;12.35;7.22;;;2.10;99.90;;;;;;4950860;29;20029;-82
2021/01/30 10:49:28;;;;;;;10.73;6.85;;;1.80;99.90;;;;;;4934104;29;20020;-79
2021/01/30 10:52:09;;;;;;;10.38;6.50;;;1.70;99.90;;;;;;4936746;28;20044;-79
2021/01/30 10:54:37;;;;;;;9.02;5.43;;;1.70;99.90;;;;;;4938421;29;20031;-78
2021/01/30 10:57:22;;;;;;;8.40;5.93;;;1.70;99.90;;;;;;4932174;29;20028;-78
2021/01/30 11:00:13;;;;;;;11.35;5.63;;;1.80;99.90;;;;;;4941953;29;20107;-78
2021/01/30 11:02:42;;;;;;;7.80;5.47;;;1.90;99.90;;;;;;4945214;29;20040;-78
2021/01/30 11:05:19;;;;;;;8.63;6.03;;;1.90;99.90;;;;;;4949741;29;20059;-77
2021/01/30 11:08:01;;;;;;;9.32;5.20;;;1.90;99.90;;;;;;4937644;29;20499;-76
2021/01/30 11:10:41;;;;;;;8.07;5.43;;;1.90;99.90;;;;;;4941241;29;20162;-77
2021/01/30 11:13:25;;;;;;;8.38;5.57;;;1.80;99.90;;;;;;4951656;28;20040;-77
2021/01/30 11:15:51;;;;;;;6.90;4.68;;;;;;;;;;4935209;29;20032;-76
2021/01/30 11:18:38;;;;;;;6.07;5.25;;;2.10;99.90;;;;;;4958319;28;20024;-78
2021/01/30 11:21:07;;;;;;;6.95;4.68;;;2.00;99.90;;;;;;4943284;29;20044;-80
2021/01/30 11:23:42;;;;;;;6.60;5.00;;;2.00;99.90;;;;;;4942503;28;20048;-78
2021/01/30 11:26:24;;;;;;;8.18;4.70;;;2.20;99.90;;;;;;4930720;29;20039;-81
2021/01/30 11:28:52;;;;;;;6.78;4.70;;;;;;;;;;4939431;29;20043;-80
2021/01/30 11:31:18;;;;;;;10.23;5.93;;;;;;;;;;4939484;29;20031;-78
2021/01/30 11:33:45;;;;;;;8.02;5.10;;;2.60;99.90;;;;;;4940373;28;20039;-79
2021/01/30 11:36:16;;;;;;;8.35;5.03;;;2.60;99.90;;;;;;4946123;29;20087;-80
2021/01/30 11:38:42;;;;;;;6.90;4.67;;;;;;;;;;4909259;29;20028;-79
2021/01/30 11:41:09;;;;;;;6.38;4.18;;;;;;;;;;4945209;29;20046;-81
2021/01/30 11:43:35;;;;;;;6.97;4.47;;;;;;;;;;4945628;28;20052;-80
2021/01/30 11:46:01;;;;;;;9.13;5.15;;;;;;;;;;4929423;29;20067;-80
2021/01/30 11:48:27;;;;;;;8.57;5.57;;;;;;;;;;4942826;28;20106;-80
2021/01/30 11:50:54;;;;;;;8.10;4.80;;;;;;;;;;4945645;29;20079;-83
2021/01/30 11:53:25;;;;;;;5.60;3.97;;;2.30;99.90;;;;;;4945253;28;20031;-80
2021/01/30 11:55:52;;;;;;;7.10;6.20;;;;;;;;;;4928343;29;20036;-81
2021/01/30 11:58:19;;;;;;;6.60;5.10;;;2.20;99.90;;;;;;4941075;28;20027;-80
2021/01/30 12:00:46;;;;;;;7.10;4.15;;;;;;;;;;4929274;29;20040;-82
2021/01/30 12:03:35;;;;;;;6.55;4.30;;;2.20;99.90;;;;;;4945819;28;20031;-79
2021/01/30 12:06:01;;;;;;;6.60;3.67;;;;;;;;;;4943762;29;20229;-80
2021/01/30 12:08:27;;;;;;;6.15;4.03;;;2.20;99.90;;;;;;4931771;29;20130;-79
2021/01/30 12:10:54;;;;;;;7.97;4.47;;;;;;;;;;4947388;29;20055;-77
2021/01/30 12:13:20;;;;;;;9.30;5.93;;;;;;;;;;4949526;28;20031;-78
2021/01/30 12:15:46;;;;;;;9.75;4.65;;;;;;;;;;4951355;28;20555;-78
2021/01/30 12:18:14;;;;;;;6.57;4.18;;;2.10;99.90;;;;;;4946940;29;20052;-78
2021/01/30 12:20:41;;;;;;;5.97;4.03;;;;;;;;;;4945462;28;20028;-77
2021/01/30 12:23:07;;;;;;;6.20;4.57;;;;;;;;;;4929086;29;20039;-79
2021/01/30 12:25:33;;;;;;;5.50;3.83;;;;;;;;;;4941475;28;20024;-79
2021/01/30 12:28:03;;;;;;;8.90;4.63;;;2.20;99.90;;;;;;4945802;29;20039;-79
2021/01/30 12:30:32;;;;;;;5.80;4.22;;;2.20;99.90;;;;;;4938430;28;20113;-77
2021/01/30 12:32:58;;;;;;;8.95;5.25;;;;;;;;;;4945496;29;20095;-78
2021/01/30 12:35:31;;;;;;;6.20;3.97;;;2.70;99.90;;;;;;4942950;28;20107;-79
2021/01/30 12:37:58;;;;;;;6.22;4.25;;;;;;;;;;4928078;29;20039;-81
2021/01/30 12:40:27;;;;;;;5.60;4.05;;;;;;;;;;4955089;28;20451;-83
2021/01/30 12:43:19;;;;;;;6.63;4.03;;;2.80;99.90;;;;;;4935759;29;20043;-86
2021/01/30 12:45:50;;;;;;;6.65;3.63;;;2.90;99.90;;;;;;4926776;29;20040;-87
2021/01/30 12:48:33;;;;;;;7.50;4.47;;;;;;;;;;4951995;29;20114;-82
2021/01/30 12:51:10;;;;;;;9.18;5.25;;;;;;;;;;4941437;29;20016;-81
2021/01/30 12:54:09;;;;;;;5.95;3.90;;;2.40;99.90;;;;;;4941487;29;20031;-82
2021/01/30 12:56:45;;;;;;;6.78;4.40;;;2.30;99.90;;;;;;4922077;29;20115;-84
2021/01/30 12:59:23;;;;;;;7.95;4.60;;;;;;;;;;4939156;29;20023;-82
2021/01/30 13:01:57;;;;;;;6.57;4.13;;;;;;;;;;4939939;29;20012;-80
2021/01/30 13:04:33;;;;;;;131.18;80.40;;;1.70;99.90;;;;;;4949729;29;20032;-81
2021/01/30 13:07:01;;;;;;;12.52;7.80;;;;;;;;;;4952455;28;20019;-83
2021/01/30 13:09:35;;;;;;;12.32;6.28;;;;;;;;;;4932813;29;20044;-83
2021/01/30 13:12:12;;;;;;;6.65;4.32;;;;;;;;;;4951804;29;20047;-82
2021/01/30 13:14:55;;;;;;;7.53;4.50;;;;;;;;;;4905411;29;20040;-82
2021/01/30 13:17:23;;;;;;;7.25;3.38;;;;;;;;;;4939518;28;20066;-81
2021/01/30 13:19:52;;;;;;;5.68;3.63;;;;;;;;;;4939428;29;20032;-81
2021/01/30 13:22:35;;;;;;;5.05;3.63;;;;;;;;;;4919729;29;20119;-82
2021/01/30 13:25:12;;;;;;;4.95;3.42;;;2.00;99.90;;;;;;4927919;29;20107;-80
2021/01/30 13:27:51;;;;;;;5.43;3.28;;;;;;;;;;4937903;28;20485;-84
2021/01/30 13:30:23;;;;;;;4.72;3.35;;;2.00;99.90;;;;;;4925626;29;20036;-82
2021/01/30 13:33:31;;;;;;;5.65;3.33;;;2.00;99.90;;;;;;4955240;28;20118;-82
2021/01/30 13:36:06;;;;;;;3.55;2.83;;;;;;;;;;4956326;29;20032;-83